PGUA/UAM METAR and TAF weather

Enter ICAO airport designator
Station Type Date Time Source
PGUA METAR 2022/11/30 17:40 UTC NOAA

PGUA 301740Z AUTO 07009KT 10SM BKN016 BKN023 BKN050 26/23 A2977 RMK AO2 CIG 016V050 CIG 012 RWY24L SLP071


Station Type Date Time Source
PGUA Decoded METAR 2022/11/30 17:40 UTC NOAA

Andersen, Mariana Is, Andersen Air Force Base, GU, United States (PGUA) 13-35N 144-56E 187M
Nov 30, 2022 - 12:40 PM EST / 2022.11.30 1740 UTC
Wind: from the ENE (070 degrees) at 10 MPH (9 KT):0
Visibility: 10 mile(s):0
Sky conditions: mostly cloudy
Temperature: 78 F (26 C)
Dew Point: 73 F (23 C)
Relative Humidity: 83%
Pressure (altimeter): 29.77 in. Hg (1008 hPa)
ob: PGUA 301740Z AUTO 07009KT 10SM BKN016 BKN023 BKN050 26/23 A2977 RMK AO2 CIG 016V050 CIG 012 RWY24L SLP071
cycle: 17

Station Type Date Time Source
PGUA TAF 2022/11/30 10:58 UTC NOAA

TAF PGUA 301000Z 3010/0116 08010G15KT 9999 SCT014 QNH2978INS
TEMPO 3012/3018 08015G20KT 8000 -SHRA BKN014
TEMPO 0110/0116 08015G25KT 6000 -SHRA BKN014 TX30/0102Z TN25/3018Z

Example: see airport list